sensor_id;sensor_type;location;lat;lon;timestamp;pressure;altitude;pressure_sealevel;temperature;humidity
70458;BME280;57919;56.194;95.716;2023-04-28T00:02:08;98586.25;;;4.79;93.89
70458;BME280;57919;56.194;95.716;2023-04-28T00:12:10;98569.09;;;4.81;94.73
70458;BME280;57919;56.194;95.716;2023-04-28T00:22:12;98570.03;;;5.04;94.69
70458;BME280;57919;56.194;95.716;2023-04-28T00:32:17;98563.78;;;5.39;94.01
70458;BME280;57919;56.194;95.716;2023-04-28T00:42:20;98552.59;;;5.56;92.98
70458;BME280;57919;56.194;95.716;2023-04-28T00:52:21;98557.22;;;5.54;93.81
70458;BME280;57919;56.194;95.716;2023-04-28T01:02:24;98541.16;;;5.76;94.34
70458;BME280;57919;56.194;95.716;2023-04-28T01:12:27;98542.97;;;5.87;94.37
70458;BME280;57919;56.194;95.716;2023-04-28T01:22:30;98535.91;;;5.86;94.40
70458;BME280;57919;56.194;95.716;2023-04-28T01:32:33;98538.72;;;5.96;94.46
70458;BME280;57919;56.194;95.716;2023-04-28T01:42:35;98523.31;;;6.20;94.15
70458;BME280;57919;56.194;95.716;2023-04-28T01:52:36;98535.50;;;6.35;93.52
70458;BME280;57919;56.194;95.716;2023-04-28T02:02:38;98518.84;;;6.53;93.25
70458;BME280;57919;56.194;95.716;2023-04-28T02:12:40;98510.75;;;6.64;92.78
70458;BME280;57919;56.194;95.716;2023-04-28T02:22:43;98523.41;;;6.73;93.40
70458;BME280;57919;56.194;95.716;2023-04-28T02:32:44;98507.31;;;6.94;94.01
70458;BME280;57919;56.194;95.716;2023-04-28T02:42:46;98513.44;;;7.68;93.83
70458;BME280;57919;56.194;95.716;2023-04-28T02:52:48;98504.34;;;8.49;90.95
70458;BME280;57919;56.194;95.716;2023-04-28T03:02:51;98509.47;;;8.71;89.58
70458;BME280;57919;56.194;95.716;2023-04-28T03:12:53;98484.41;;;9.47;89.09
70458;BME280;57919;56.194;95.716;2023-04-28T03:22:54;98474.81;;;9.99;86.81
70458;BME280;57919;56.194;95.716;2023-04-28T03:32:57;98480.50;;;10.51;86.22
70458;BME280;57919;56.194;95.716;2023-04-28T03:42:59;98478.38;;;10.72;84.74
70458;BME280;57919;56.194;95.716;2023-04-28T03:53:05;98484.00;;;10.96;84.03
70458;BME280;57919;56.194;95.716;2023-04-28T04:03:08;98488.34;;;11.33;83.17
70458;BME280;57919;56.194;95.716;2023-04-28T04:13:10;98479.13;;;11.44;81.75
70458;BME280;57919;56.194;95.716;2023-04-28T04:23:12;98489.84;;;11.53;81.46
70458;BME280;57919;56.194;95.716;2023-04-28T04:33:15;98481.63;;;11.89;81.17
70458;BME280;57919;56.194;95.716;2023-04-28T04:43:17;98482.94;;;12.93;79.16
70458;BME280;57919;56.194;95.716;2023-04-28T04:53:22;98478.41;;;13.18;77.62
70458;BME280;57919;56.194;95.716;2023-04-28T05:03:25;98466.09;;;13.79;76.34
70458;BME280;57919;56.194;95.716;2023-04-28T05:13:28;98462.00;;;13.83;74.60
70458;BME280;57919;56.194;95.716;2023-04-28T05:23:35;98450.28;;;13.83;74.67
70458;BME280;57919;56.194;95.716;2023-04-28T05:33:37;98436.91;;;14.51;73.50
70458;BME280;57919;56.194;95.716;2023-04-28T05:43:39;98420.25;;;15.15;71.90
70458;BME280;57919;56.194;95.716;2023-04-28T05:53:42;98421.13;;;15.30;69.40
70458;BME280;57919;56.194;95.716;2023-04-28T06:03:44;98418.28;;;15.61;69.31
70458;BME280;57919;56.194;95.716;2023-04-28T06:13:46;98420.28;;;15.82;68.62
70458;BME280;57919;56.194;95.716;2023-04-28T06:23:48;98413.13;;;15.81;68.10
70458;BME280;57919;56.194;95.716;2023-04-28T06:33:50;98405.13;;;15.65;68.35
70458;BME280;57919;56.194;95.716;2023-04-28T06:43:53;98398.63;;;15.51;67.82
70458;BME280;57919;56.194;95.716;2023-04-28T06:54:00;98383.38;;;15.42;67.39
70458;BME280;57919;56.194;95.716;2023-04-28T07:04:02;98389.78;;;15.49;66.01
70458;BME280;57919;56.194;95.716;2023-04-28T07:14:04;98389.47;;;15.29;65.98
70458;BME280;57919;56.194;95.716;2023-04-28T07:24:06;98390.91;;;15.02;65.98
70458;BME280;57919;56.194;95.716;2023-04-28T07:34:08;98395.13;;;14.67;66.65
70458;BME280;57919;56.194;95.716;2023-04-28T07:44:10;98394.50;;;14.57;66.91
70458;BME280;57919;56.194;95.716;2023-04-28T07:54:12;98387.66;;;14.84;66.15
70458;BME280;57919;56.194;95.716;2023-04-28T08:04:14;98371.88;;;15.17;65.29
70458;BME280;57919;56.194;95.716;2023-04-28T08:14:16;98376.16;;;15.49;64.24
70458;BME280;57919;56.194;95.716;2023-04-28T08:24:18;98368.06;;;15.41;64.01
70458;BME280;57919;56.194;95.716;2023-04-28T08:34:20;98381.97;;;15.46;63.55
70458;BME280;57919;56.194;95.716;2023-04-28T08:44:22;98380.34;;;15.22;63.81
70458;BME280;57919;56.194;95.716;2023-04-28T08:54:29;98381.78;;;14.95;63.51
70458;BME280;57919;56.194;95.716;2023-04-28T09:04:32;98372.75;;;14.57;64.39
70458;BME280;57919;56.194;95.716;2023-04-28T09:14:35;98367.34;;;14.49;64.91
70458;BME280;57919;56.194;95.716;2023-04-28T09:24:38;98368.00;;;14.51;65.18
70458;BME280;57919;56.194;95.716;2023-04-28T09:34:52;98363.84;;;14.63;65.08
70458;BME280;57919;56.194;95.716;2023-04-28T09:44:54;98363.72;;;14.57;65.41
70458;BME280;57919;56.194;95.716;2023-04-28T09:54:56;98361.69;;;14.28;66.49
70458;BME280;57919;56.194;95.716;2023-04-28T10:04:58;98376.63;;;14.01;66.91
70458;BME280;57919;56.194;95.716;2023-04-28T10:15:02;98385.06;;;13.75;68.05
70458;BME280;57919;56.194;95.716;2023-04-28T10:56:04;98398.63;;;12.87;70.94
70458;BME280;57919;56.194;95.716;2023-04-28T11:16:33;98409.09;;;12.33;73.08
70458;BME280;57919;56.194;95.716;2023-04-28T11:26:36;98396.47;;;12.08;74.57
70458;BME280;57919;56.194;95.716;2023-04-28T11:36:40;98393.56;;;11.93;74.43
70458;BME280;57919;56.194;95.716;2023-04-28T11:46:47;98371.69;;;11.86;74.36
70458;BME280;57919;56.194;95.716;2023-04-28T11:56:57;98383.09;;;12.06;74.08
70458;BME280;57919;56.194;95.716;2023-04-28T12:07:15;98381.91;;;12.09;73.76
70458;BME280;57919;56.194;95.716;2023-04-28T12:17:26;98368.66;;;11.89;74.10
70458;BME280;57919;56.194;95.716;2023-04-28T12:27:28;98371.88;;;11.59;74.85
70458;BME280;57919;56.194;95.716;2023-04-28T12:37:30;98363.63;;;11.35;76.15
70458;BME280;57919;56.194;95.716;2023-04-28T12:47:32;98356.75;;;11.14;76.54
70458;BME280;57919;56.194;95.716;2023-04-28T12:57:34;98359.88;;;10.76;78.21
70458;BME280;57919;56.194;95.716;2023-04-28T13:07:39;98345.00;;;10.36;79.83
70458;BME280;57919;56.194;95.716;2023-04-28T13:17:42;98338.66;;;10.10;81.51
70458;BME280;57919;56.194;95.716;2023-04-28T13:27:45;98354.31;;;10.06;81.67
70458;BME280;57919;56.194;95.716;2023-04-28T13:37:47;98338.88;;;9.98;82.76
70458;BME280;57919;56.194;95.716;2023-04-28T13:47:50;98315.47;;;9.89;84.03
70458;BME280;57919;56.194;95.716;2023-04-28T13:57:53;98327.81;;;9.74;85.83
70458;BME280;57919;56.194;95.716;2023-04-28T14:07:55;98337.91;;;9.72;85.19
70458;BME280;57919;56.194;95.716;2023-04-28T14:17:57;98341.47;;;9.73;85.40
70458;BME280;57919;56.194;95.716;2023-04-28T14:27:59;98347.91;;;9.62;86.08
70458;BME280;57919;56.194;95.716;2023-04-28T14:38:02;98298.63;;;9.32;88.56
70458;BME280;57919;56.194;95.716;2023-04-28T14:48:04;98309.72;;;9.29;90.04
70458;BME280;57919;56.194;95.716;2023-04-28T14:58:08;98304.63;;;9.26;90.89
70458;BME280;57919;56.194;95.716;2023-04-28T15:08:10;98288.78;;;9.14;91.36
70458;BME280;57919;56.194;95.716;2023-04-28T15:18:12;98286.13;;;9.04;92.56
70458;BME280;57919;56.194;95.716;2023-04-28T15:28:14;98284.78;;;8.90;92.79
70458;BME280;57919;56.194;95.716;2023-04-28T15:38:16;98270.78;;;8.77;93.78
70458;BME280;57919;56.194;95.716;2023-04-28T15:48:18;98265.25;;;8.69;93.62
70458;BME280;57919;56.194;95.716;2023-04-28T15:58:20;98245.72;;;8.57;93.57
70458;BME280;57919;56.194;95.716;2023-04-28T16:08:22;98223.47;;;8.46;94.45
70458;BME280;57919;56.194;95.716;2023-04-28T16:18:28;98211.88;;;8.26;94.50
70458;BME280;57919;56.194;95.716;2023-04-28T16:28:31;98194.34;;;8.02;94.92
70458;BME280;57919;56.194;95.716;2023-04-28T16:38:33;98174.94;;;7.99;96.04
70458;BME280;57919;56.194;95.716;2023-04-28T16:48:35;98178.34;;;7.91;96.80
70458;BME280;57919;56.194;95.716;2023-04-28T16:58:37;98170.84;;;7.75;97.21
70458;BME280;57919;56.194;95.716;2023-04-28T17:08:39;98167.75;;;7.70;97.67
70458;BME280;57919;56.194;95.716;2023-04-28T17:18:41;98169.16;;;7.65;98.09
70458;BME280;57919;56.194;95.716;2023-04-28T17:28:43;98146.50;;;7.58;97.22
70458;BME280;57919;56.194;95.716;2023-04-28T17:38:45;98140.00;;;7.41;96.96
70458;BME280;57919;56.194;95.716;2023-04-28T17:48:47;98120.59;;;7.37;98.34
70458;BME280;57919;56.194;95.716;2023-04-28T17:58:49;98101.91;;;7.26;98.16
70458;BME280;57919;56.194;95.716;2023-04-28T18:08:52;98096.53;;;7.17;98.89
70458;BME280;57919;56.194;95.716;2023-04-28T18:18:54;98084.50;;;7.21;98.63
70458;BME280;57919;56.194;95.716;2023-04-28T18:28:56;98062.13;;;7.30;98.83
70458;BME280;57919;56.194;95.716;2023-04-28T18:38:58;98042.75;;;7.17;99.33
70458;BME280;57919;56.194;95.716;2023-04-28T18:49:01;98046.00;;;7.20;98.68
70458;BME280;57919;56.194;95.716;2023-04-28T18:59:03;98017.97;;;7.23;97.90
70458;BME280;57919;56.194;95.716;2023-04-28T19:09:06;98012.03;;;7.19;98.36
70458;BME280;57919;56.194;95.716;2023-04-28T19:19:08;98009.75;;;7.24;97.37
70458;BME280;57919;56.194;95.716;2023-04-28T19:29:10;98002.28;;;7.18;97.10
70458;BME280;57919;56.194;95.716;2023-04-28T19:39:15;97998.72;;;7.27;96.88
70458;BME280;57919;56.194;95.716;2023-04-28T19:49:18;97988.94;;;7.36;96.02
70458;BME280;57919;56.194;95.716;2023-04-28T19:59:19;97984.50;;;7.44;95.58
70458;BME280;57919;56.194;95.716;2023-04-28T20:20:01;97939.47;;;7.47;94.44
70458;BME280;57919;56.194;95.716;2023-04-28T20:30:05;97931.81;;;7.52;93.92
70458;BME280;57919;56.194;95.716;2023-04-28T20:40:08;97941.59;;;7.53;93.50
70458;BME280;57919;56.194;95.716;2023-04-28T20:50:11;97947.19;;;7.69;92.43
70458;BME280;57919;56.194;95.716;2023-04-28T21:00:13;97889.75;;;7.78;92.80
70458;BME280;57919;56.194;95.716;2023-04-28T21:10:16;97870.25;;;7.94;91.72
70458;BME280;57919;56.194;95.716;2023-04-28T21:20:19;97857.41;;;8.23;90.59
70458;BME280;57919;56.194;95.716;2023-04-28T21:30:21;97853.72;;;8.06;89.10
70458;BME280;57919;56.194;95.716;2023-04-28T21:40:23;97851.38;;;7.76;89.45
70458;BME280;57919;56.194;95.716;2023-04-28T21:50:25;97859.38;;;7.86;89.78
70458;BME280;57919;56.194;95.716;2023-04-28T22:00:27;97850.09;;;7.98;89.11
70458;BME280;57919;56.194;95.716;2023-04-28T22:10:29;97849.88;;;8.09;88.95
70458;BME280;57919;56.194;95.716;2023-04-28T22:20:30;97838.09;;;8.28;87.99
70458;BME280;57919;56.194;95.716;2023-04-28T22:30:32;97829.09;;;8.37;87.38
70458;BME280;57919;56.194;95.716;2023-04-28T22:40:34;97839.50;;;8.50;85.94
70458;BME280;57919;56.194;95.716;2023-04-28T22:50:36;97861.66;;;8.44;86.16
70458;BME280;57919;56.194;95.716;2023-04-28T23:00:38;97858.75;;;8.37;86.43
70458;BME280;57919;56.194;95.716;2023-04-28T23:10:40;97864.28;;;8.53;85.87
70458;BME280;57919;56.194;95.716;2023-04-28T23:20:42;97842.53;;;8.72;85.59
70458;BME280;57919;56.194;95.716;2023-04-28T23:30:44;97811.50;;;8.94;84.90
70458;BME280;57919;56.194;95.716;2023-04-28T23:40:46;97773.31;;;9.15;82.47
70458;BME280;57919;56.194;95.716;2023-04-28T23:50:48;97787.38;;;9.27;82.54
